LFRS 191800Z AUTO 04004KT 360V070 CAVOK 23/06 Q1024 NOSIG